aviador You're here:

KDAN Decoded Metar

DANVILLE in VA, USA
Report Time2017-10-19 20:53:00
UTC Time2017-10-19 21:46:52
Flight Rules vfr VFR
Wind250° at 03 kt
W.Decomp.*RWY 31: 1.9 kt HW 2.3 kt LCW
RWY 20: 1.5 kt HW 2.6 kt RCW
W.Rank250° ranks 8
Current wind is below 250° avg. (6.9)
Visibility9999 m
Phenomena:N/A
Clouds:N/A
Expected CloudBase > 6,400 ft AGL from Temp-Dew spread
CeilingNone
Temp23°C (ISA +9)
Dew Point07°C (36% RH)
AAT21.2°C
QNH1023 hPa
Density Alt1,440 ft
Elevation574 ft
Report Wrong Elevation
Raw Report
KDAN 192053Z AUTO 25003KT 10SM CLR 23/07 A3021 RMK AO2 SLP223
T02280067 56017=

Extra information for KDAN:More info

Metar Taf Metar & Taf Last 4 Metars F.Rules Stats Wind Profile Meteogram Temp Stats Airport Information Weather charts Add Link Nearby VenuesMetar ALERT Operation Metar Decoded Social comments

AIRNAV info for KDAN